Laukaa, Finland
Kieli:  Suomi
CurCond
Päivitetty27/05/2020 06:57 
 

Lähistön Lentoasemien Säätiloja:

 

EFJY - Jyvaskyla (mil/C,) Finland
Etäisyys Sääasemalta: PKo 21km
Päivitetty: 27/05/2020 06:20
Selkeätä
Selkeätä
 Tuulen suunta IKa
Tuuli: IKa 4 km/h
Lämpötila: 9°C
Kastepiste: 4°C
Ilmankosteus: 71%
Ilmanpaine: 1024 hPa
Yhteenveto: Selkeätä
Näkyvyys: Enemmän Kuin 10 km
2020/05/27 03:20 EFJY 270320Z AUTO 12002KT CAVOK 09/04 Q1024
EFHA - Halli (fin-Afb), Finland
Etäisyys Sääasemalta: Lo 56km
Päivitetty: 27/05/2020 06:20
Selkeätä
Selkeätä
 Tuulen suunta EKa
Tuuli: EKa 6 km/h
Lämpötila: 9°C
Kastepiste: 5°C
Ilmankosteus: 76%
Ilmanpaine: 1025 hPa
Yhteenveto: Selkeätä
Näkyvyys: Enemmän Kuin 10 km
2020/05/27 03:20 EFHA 270320Z AUTO 15003KT CAVOK 09/05 Q1025
EFMI - Mikkeli, Finland
Etäisyys Sääasemalta: IKa 105km
Päivitetty: 27/05/2020 06:20
Selkeätä
Selkeätä
 Tuulen suunta L
Tuuli: L 4 km/h
Lämpötila: 11°C
Kastepiste: 6°C
Ilmankosteus: 72%
Ilmanpaine: 1025 hPa
Yhteenveto: Selkeätä
Näkyvyys: Enemmän Kuin 10 km
2020/05/27 03:20 EFMI 270320Z AUTO 28002KT CAVOK 11/06 Q1025
 
EFTP - Tampere/Pirkkala, Finland
Etäisyys Sääasemalta: Lo 135km
Päivitetty: 27/05/2020 06:20
Selkeätä
Selkeätä
 Tuulen suunta E
Tuuli: E 7 km/h
Lämpötila: 11°C
Kastepiste: 4°C
Ilmankosteus: 62%
Ilmanpaine: 1025 hPa
Yhteenveto: Selkeätä
Näkyvyys: Enemmän Kuin 10 km
2020/05/27 03:20 EFTP 270320Z AUTO 19004KT 150V220 CAVOK 11/04 Q1025
EFKU - Kuopio (mil/Civ), Finland
Etäisyys Sääasemalta: Ko 146km
Päivitetty: 27/05/2020 06:20
Selkeätä
Selkeätä
 Tuulen suunta IKa
Tuuli: IKa 7 km/h
Lämpötila: 12°C
Kastepiste: 7°C
Ilmankosteus: 72%
Ilmanpaine: 1023 hPa
Yhteenveto: Selkeätä
Näkyvyys: Enemmän Kuin 10 km
2020/05/27 03:20 EFKU 270320Z AUTO 12004KT CAVOK 12/07 Q1023
EFSI - Seinajoki-Ilmajo, Finland
Etäisyys Sääasemalta: LLu 149km
Päivitetty: 27/05/2020 06:50
Selkeätä
Selkeätä
 Tuulen suunta EKa
Tuuli: EKa 7 km/h
Lämpötila: 10°C
Tuulen purevuus: 9°C
Kastepiste: 4°C
Ilmankosteus: 67%
Ilmanpaine: 1022 hPa
Yhteenveto: Selkeätä
Näkyvyys: Enemmän Kuin 10 km
2020/05/27 03:50 EFSI 270350Z AUTO 15004KT 110V190 CAVOK 10/04 Q1022